Time;durP1;ratioP1;P1;durP2;ratioP2;P2;SDS_P1;SDS_P2;PMS_P1;PMS_P2;Temp;Humidity;BMP_temperature;BMP_pressure;BME280_temperature;BME280_humidity;BME280_pressure;Samples;Min_cycle;Max_cycle;Signal;HPM_P1;HPM_P2
2023/01/20 00:01:36;;;;;;;0.75;0.75;;;;;;;5.22;62.14;99139.44;4374339;32;31865;-83
2023/01/20 00:04:04;;;;;;;0.20;0.20;;;;;;;5.25;62.12;99126.25;4396195;32;32324;-83
2023/01/20 00:06:32;;;;;;;1.65;1.55;;;;;;;5.04;62.07;99126.06;4382358;32;32069;-82
2023/01/20 00:09:00;;;;;;;0.65;0.65;;;;;;;4.70;63.31;99118.41;4391788;32;34238;-82
2023/01/20 00:11:29;;;;;;;3.03;2.60;;;;;;;4.75;62.86;99110.44;4384758;32;34665;-82
2023/01/20 00:13:59;;;;;;;0.85;0.85;;;;;;;4.47;64.06;99108.66;4371106;32;34381;-81
2023/01/20 00:16:27;;;;;;;0.60;0.60;;;;;;;4.04;66.40;99107.28;4381851;32;32982;-81
2023/01/20 00:18:54;;;;;;;0.10;0.10;;;;;;;4.68;63.90;99114.12;4372227;32;34428;-81
2023/01/20 00:21:22;;;;;;;2.47;1.80;;;;;;;4.30;64.42;99122.22;4393282;32;34023;-81
2023/01/20 00:23:50;;;;;;;0.73;0.73;;;;;;;4.22;64.77;99133.78;4379928;32;34812;-82
2023/01/20 00:26:19;;;;;;;2.55;2.08;;;;;;;4.37;64.70;99128.97;4378818;32;32129;-81
2023/01/20 00:28:47;;;;;;;1.12;1.02;;;;;;;4.44;64.66;99123.56;4378561;32;33288;-82
2023/01/20 00:31:18;;;;;;;1.02;1.02;;;;;;;4.74;63.67;99132.22;4371909;32;33443;-81
2023/01/20 00:33:47;;;;;;;0.05;0.05;;;;;;;4.10;65.71;99151.53;4381186;32;33109;-81
2023/01/20 00:36:15;;;;;;;0.00;0.00;;;;;;;4.53;64.04;99149.44;4368776;32;33390;-81
2023/01/20 00:38:43;;;;;;;0.00;0.00;;;;;;;4.73;62.95;99149.69;4380122;32;34328;-81
2023/01/20 00:41:11;;;;;;;2.28;1.25;;;;;;;4.49;64.16;99158.25;4370756;32;34411;-82
2023/01/20 00:43:39;;;;;;;0.00;0.00;;;;;;;4.45;64.71;99165.34;4369960;32;33147;-81
2023/01/20 00:46:07;;;;;;;0.37;0.37;;;;;;;4.47;64.70;99173.16;4383837;32;31869;-81
2023/01/20 00:48:35;;;;;;;0.40;0.40;;;;;;;4.32;65.15;99177.91;4374897;32;33471;-81
2023/01/20 00:51:04;;;;;;;0.00;0.00;;;;;;;4.22;65.98;99183.41;4384030;32;33938;-82
2023/01/20 00:53:32;;;;;;;0.22;0.22;;;;;;;4.31;65.87;99175.31;4369560;32;33894;-82
2023/01/20 00:56:00;;;;;;;0.05;0.05;;;;;;;4.44;65.52;99171.47;4385577;32;33470;-82
2023/01/20 00:58:27;;;;;;;2.28;0.93;;;;;;;4.99;63.22;99167.22;4392643;32;34133;-82
2023/01/20 01:00:57;;;;;;;0.10;0.10;;;;;;;5.18;61.97;99167.50;4373349;32;34560;-82
2023/01/20 01:03:29;;;;;;;0.88;0.88;;;;;;;5.11;61.96;99152.88;4382226;32;32697;-82
2023/01/20 01:06:26;;;;;;;0.55;0.55;;;;;;;4.76;63.31;99148.75;4378807;32;33892;-82
2023/01/20 01:08:53;;;;;;;0.95;0.95;;;;;;;4.86;63.12;99143.19;4371994;32;33773;-82
2023/01/20 01:11:21;;;;;;;6.40;2.30;;;;;;;4.68;63.74;99145.50;4369016;32;34001;-82
2023/01/20 01:13:49;;;;;;;1.35;0.77;;;;;;;4.68;63.87;99138.50;4392146;32;33797;-82
2023/01/20 01:16:16;;;;;;;0.25;0.25;;;;;;;4.74;63.73;99133.09;4391990;32;33210;-82
2023/01/20 01:18:44;;;;;;;0.45;0.45;;;;;;;4.76;63.92;99135.69;4384128;32;34274;-82
2023/01/20 01:21:14;;;;;;;0.55;0.55;;;;;;;4.86;63.44;99127.50;4385949;32;34354;-82
2023/01/20 01:23:42;;;;;;;0.82;0.82;;;;;;;4.90;63.28;99125.63;4391728;32;33602;-82
2023/01/20 01:26:10;;;;;;;2.50;2.08;;;;;;;4.69;64.06;99113.22;4368495;32;33258;-82
2023/01/20 01:28:38;;;;;;;0.43;0.43;;;;;;;4.91;63.48;99106.41;4383102;32;33165;-81
2023/01/20 01:31:06;;;;;;;0.80;0.45;;;;;;;5.24;61.85;99101.00;4367996;32;32996;-81
2023/01/20 01:33:34;;;;;;;0.20;0.20;;;;;;;4.83;63.00;99116.25;4359034;32;33048;-81
2023/01/20 01:36:03;;;;;;;0.13;0.13;;;;;;;4.76;63.40;99115.59;4374788;32;31883;-81
2023/01/20 01:38:30;;;;;;;0.37;0.37;;;;;;;4.59;63.53;99103.03;4379870;32;34018;-81
2023/01/20 01:40:58;;;;;;;0.43;0.43;;;;;;;4.74;63.30;99101.69;4380169;32;32912;-81
2023/01/20 01:43:26;;;;;;;0.85;0.57;;;;;;;4.69;63.05;99103.59;4384735;32;34199;-81
2023/01/20 01:45:55;;;;;;;0.62;0.62;;;;;;;4.83;63.00;99100.56;4372041;32;33619;-81
2023/01/20 01:48:38;;;;;;;0.77;0.77;;;;;;;4.81;63.09;99097.16;4380432;32;32945;-81
2023/01/20 01:51:11;;;;;;;0.20;0.20;;;;;;;4.82;62.99;99094.47;4369599;32;34219;-81
2023/01/20 01:53:43;;;;;;;0.10;0.10;;;;;;;4.66;63.36;99092.41;4383352;32;34232;-81
2023/01/20 01:56:12;;;;;;;0.17;0.17;;;;;;;4.70;63.33;99087.03;4370714;32;33084;-81
2023/01/20 01:58:44;;;;;;;0.30;0.30;;;;;;;5.10;61.85;99077.91;4371737;32;33494;-81
2023/01/20 02:01:12;;;;;;;0.50;0.50;;;;;;;4.80;62.93;99074.53;4371710;32;32595;-81
2023/01/20 02:03:55;;;;;;;0.00;0.00;;;;;;;4.69;63.50;99074.00;4379980;32;34763;-81
2023/01/20 02:06:24;;;;;;;0.50;0.50;;;;;;;4.90;62.75;99072.47;4370538;32;34331;-82
2023/01/20 02:08:52;;;;;;;0.10;0.10;;;;;;;4.78;62.47;99078.94;4354675;32;34472;-82
2023/01/20 02:11:20;;;;;;;0.25;0.22;;;;;;;5.00;61.73;99079.09;4357385;32;32164;-81
2023/01/20 02:13:47;;;;;;;0.57;0.57;;;;;;;4.95;61.61;99068.78;4375808;32;33554;-81
2023/01/20 02:16:34;;;;;;;0.25;0.25;;;;;;;4.99;61.41;99077.41;4367323;32;32424;-81
2023/01/20 02:19:32;;;;;;;0.90;0.90;;;;;;;4.81;61.85;99079.69;4366265;32;34115;-81
2023/01/20 02:22:28;;;;;;;0.00;0.00;;;;;;;4.56;62.92;99073.53;4367564;32;33338;-81
2023/01/20 02:25:29;;;;;;;2.72;1.12;;;;;;;4.26;64.27;99084.00;4373726;32;32755;-81
2023/01/20 02:28:26;;;;;;;0.77;0.57;;;;;;;4.54;62.76;99091.00;4380958;32;32230;-81
2023/01/20 02:31:30;;;;;;;0.35;0.35;;;;;;;4.32;63.78;99082.94;4377200;32;34764;-81
2023/01/20 02:34:04;;;;;;;0.30;0.25;;;;;;;4.54;62.72;99089.25;4366487;32;33809;-82
2023/01/20 02:36:41;;;;;;;0.22;0.22;;;;;;;4.41;63.89;99076.59;4382771;32;33182;-81
2023/01/20 02:39:24;;;;;;;0.65;0.65;;;;;;;4.44;63.45;99079.13;4354336;32;33079;-81
2023/01/20 02:42:10;;;;;;;0.60;0.60;;;;;;;4.40;63.43;99078.34;4375503;32;33981;-81
2023/01/20 02:44:55;;;;;;;0.95;0.95;;;;;;;4.46;63.48;99070.31;4366222;32;33713;-82
2023/01/20 02:47:32;;;;;;;2.00;1.90;;;;;;;4.76;61.98;99076.38;4359980;32;32781;-82
2023/01/20 02:50:13;;;;;;;1.85;1.75;;;;;;;4.10;65.04;99087.97;4376278;32;31553;-81
2023/01/20 02:52:45;;;;;;;0.20;0.20;;;;;;;4.53;63.35;99081.47;4353535;32;32695;-82
2023/01/20 02:55:18;;;;;;;0.73;0.73;;;;;;;4.21;64.28;99093.72;4365569;32;33682;-82
2023/01/20 02:57:50;;;;;;;0.68;0.68;;;;;;;4.31;64.12;99087.31;4367775;32;34207;-82
2023/01/20 03:00:22;;;;;;;0.43;0.43;;;;;;;4.57;63.05;99086.56;4371121;32;32836;-82
2023/01/20 03:02:52;;;;;;;3.17;2.12;;;;;;;4.34;63.94;99092.47;4366817;32;33894;-82
2023/01/20 03:05:23;;;;;;;0.50;0.50;;;;;;;4.39;63.58;99084.50;4381525;32;33691;-82
2023/01/20 03:07:51;;;;;;;0.85;0.85;;;;;;;4.49;63.48;99087.69;4387211;32;33549;-82
2023/01/20 03:10:21;;;;;;;1.52;1.42;;;;;;;4.35;63.92;99102.00;4376512;32;33800;-82
2023/01/20 03:13:02;;;;;;;0.98;0.98;;;;;;;4.53;63.30;99094.53;4376579;32;32634;-82
2023/01/20 03:15:46;;;;;;;0.68;0.68;;;;;;;4.75;62.51;99097.34;4367098;32;33988;-82
2023/01/20 03:18:14;;;;;;;1.35;0.90;;;;;;;4.53;63.07;99102.37;4381024;32;33899;-82
2023/01/20 03:20:42;;;;;;;0.80;0.52;;;;;;;4.48;63.49;99112.13;4352761;32;32628;-82
2023/01/20 03:23:10;;;;;;;1.80;1.70;;;;;;;4.72;62.39;99106.12;4374267;32;33100;-82
2023/01/20 03:25:38;;;;;;;0.88;0.88;;;;;;;4.54;63.39;99104.94;4361960;32;34661;-83
2023/01/20 03:28:06;;;;;;;0.22;0.22;;;;;;;4.74;62.58;99106.94;4373385;32;32780;-81
2023/01/20 03:30:33;;;;;;;1.40;0.77;;;;;;;4.20;64.76;99110.31;4378392;32;32142;-82
2023/01/20 03:33:01;;;;;;;9.38;2.12;;;;;;;4.49;63.91;99116.44;4354616;32;33775;-82
2023/01/20 03:35:30;;;;;;;1.50;1.42;;;;;;;4.77;62.77;99117.31;4367535;32;34021;-82
2023/01/20 03:37:57;;;;;;;0.68;0.68;;;;;;;4.71;63.04;99117.50;4381442;32;33518;-82
2023/01/20 03:40:28;;;;;;;1.70;1.60;;;;;;;4.62;63.78;99112.56;4374891;32;33879;-82
2023/01/20 03:43:34;;;;;;;1.10;1.08;;;;;;;4.96;62.07;99111.50;4355701;32;33010;-82
2023/01/20 03:46:07;;;;;;;0.88;0.88;;;;;;;4.92;61.78;99108.13;4373354;32;33467;-82
2023/01/20 03:48:44;;;;;;;0.80;0.70;;;;;;;4.84;62.46;99102.25;4361310;32;33807;-82
2023/01/20 03:51:21;;;;;;;0.08;0.08;;;;;;;4.98;61.80;99099.22;4381593;32;32371;-82
2023/01/20 03:53:54;;;;;;;0.10;0.10;;;;;;;4.72;62.79;99103.53;4380085;32;33515;-81
2023/01/20 03:56:38;;;;;;;0.52;0.52;;;;;;;4.41;64.14;99115.81;4361127;32;34385;-82
2023/01/20 03:59:08;;;;;;;0.20;0.20;;;;;;;4.44;64.50;99113.09;4374652;32;33826;-82
2023/01/20 04:01:38;;;;;;;1.65;1.55;;;;;;;4.79;63.46;99112.03;4380890;32;33387;-82
2023/01/20 04:04:10;;;;;;;2.03;1.80;;;;;;;4.91;62.82;99105.56;4368739;32;33526;-81
2023/01/20 04:06:40;;;;;;;1.20;1.12;;;;;;;4.76;63.25;99092.06;4363801;32;32546;-81
2023/01/20 04:09:16;;;;;;;0.25;0.25;;;;;;;4.72;63.16;99098.28;4383411;32;34523;-81
2023/01/20 04:11:43;;;;;;;0.20;0.20;;;;;;;4.98;62.64;99110.53;4369294;32;33256;-81
2023/01/20 04:14:11;;;;;;;0.17;0.17;;;;;;;4.86;62.69;99109.19;4382589;32;34170;-81
2023/01/20 04:16:39;;;;;;;0.17;0.17;;;;;;;4.79;63.20;99099.78;4357764;32;34000;-81
2023/01/20 04:19:06;;;;;;;0.40;0.40;;;;;;;4.95;62.68;99088.88;4373271;32;34516;-81
2023/01/20 04:22:36;;;;;;;0.60;0.60;;;;;;;5.07;61.92;99098.91;4338344;32;33161;-81
2023/01/20 04:25:14;;;;;;;0.20;0.20;;;;;;;4.95;62.35;99099.34;4334497;33;33752;-81
2023/01/20 04:27:42;;;;;;;1.73;1.62;;;;;;;4.67;63.69;99108.03;4337705;33;35680;-81
2023/01/20 04:30:12;;;;;;;0.90;0.88;;;;;;;4.55;64.22;99111.00;4358081;32;33910;-82
2023/01/20 04:32:39;;;;;;;0.55;0.55;;;;;;;4.67;63.84;99113.28;4368360;32;31989;-81
2023/01/20 04:35:11;;;;;;;1.15;1.15;;;;;;;4.88;63.33;99114.34;4374262;32;33602;-81
2023/01/20 04:37:39;;;;;;;0.55;0.55;;;;;;;4.93;63.02;99115.06;4369376;32;33600;-81
2023/01/20 04:40:08;;;;;;;0.43;0.43;;;;;;;4.92;63.34;99109.87;4363011;32;32756;-82
2023/01/20 04:42:36;;;;;;;0.28;0.28;;;;;;;4.94;63.09;99108.06;4371139;32;33607;-81
2023/01/20 04:45:04;;;;;;;2.83;0.47;;;;;;;4.77;63.63;99119.06;4380354;32;33715;-82
2023/01/20 04:47:32;;;;;;;0.57;0.57;;;;;;;4.87;63.77;99117.87;4371147;32;35221;-81
2023/01/20 04:50:00;;;;;;;0.50;0.50;;;;;;;4.42;65.40;99122.75;4372256;32;33430;-82
2023/01/20 04:52:28;;;;;;;0.88;0.52;;;;;;;4.82;64.07;99106.69;4357441;32;33858;-82
2023/01/20 04:54:55;;;;;;;0.10;0.10;;;;;;;5.10;63.14;99090.97;4369586;32;34303;-82
2023/01/20 04:57:23;;;;;;;0.95;0.65;;;;;;;5.23;62.46;99084.44;4358090;32;33621;-82
2023/01/20 04:59:51;;;;;;;1.42;1.33;;;;;;;5.29;61.73;99079.00;4358372;32;33006;-81
2023/01/20 05:02:18;;;;;;;1.33;1.33;;;;;;;5.52;60.78;99065.13;4357926;32;33353;-81
2023/01/20 05:04:46;;;;;;;1.08;1.08;;;;;;;5.23;61.66;99062.66;4362149;32;33136;-81
2023/01/20 05:07:14;;;;;;;1.62;1.45;;;;;;;5.01;62.52;99052.88;4350672;32;33837;-81
2023/01/20 05:09:42;;;;;;;2.42;2.12;;;;;;;4.88;63.04;99049.81;4363199;32;34541;-81
2023/01/20 05:12:10;;;;;;;0.30;0.30;;;;;;;4.83;63.10;99053.47;4363698;32;33077;-82
2023/01/20 05:14:37;;;;;;;0.85;0.85;;;;;;;4.82;63.31;99064.84;4375889;32;34508;-82
2023/01/20 05:17:05;;;;;;;2.95;2.75;;;;;;;4.76;62.97;99055.44;4357290;32;33412;-81
2023/01/20 05:19:33;;;;;;;0.45;0.45;;;;;;;4.49;63.80;99080.69;4370106;32;34078;-81
2023/01/20 05:22:00;;;;;;;1.83;1.73;;;;;;;4.45;64.19;99079.06;4356564;32;32792;-81
2023/01/20 05:24:29;;;;;;;0.95;0.93;;;;;;;4.64;63.71;99068.91;4362480;32;33600;-82
2023/01/20 05:26:59;;;;;;;2.08;0.95;;;;;;;4.61;63.73;99082.09;4361634;32;34267;-81
2023/01/20 05:29:27;;;;;;;0.20;0.20;;;;;;;4.66;63.57;99077.56;4375288;32;34132;-81
2023/01/20 05:31:55;;;;;;;0.75;0.62;;;;;;;4.80;63.24;99074.53;4375957;32;33969;-81
2023/01/20 05:34:23;;;;;;;0.90;0.88;;;;;;;4.90;63.17;99070.72;4362870;32;33591;-81
2023/01/20 05:36:52;;;;;;;3.20;1.87;;;;;;;4.69;63.57;99066.16;4362814;32;33888;-81
2023/01/20 05:39:20;;;;;;;0.30;0.30;;;;;;;4.67;63.76;99070.56;4362468;32;33798;-82
2023/01/20 05:41:47;;;;;;;3.17;1.95;;;;;;;4.90;62.98;99075.09;4371629;32;33390;-82
2023/01/20 05:44:15;;;;;;;3.22;1.25;;;;;;;4.77;63.57;99074.59;4358951;32;34529;-82
2023/01/20 05:46:43;;;;;;;0.32;0.32;;;;;;;4.79;63.71;99073.63;4370985;32;32247;-82
2023/01/20 05:49:11;;;;;;;1.27;1.23;;;;;;;4.90;63.71;99077.69;4359284;32;34090;-82
2023/01/20 05:51:38;;;;;;;1.62;1.52;;;;;;;5.07;63.22;99083.22;4359217;32;33637;-82
2023/01/20 05:54:06;;;;;;;0.45;0.45;;;;;;;5.36;61.99;99080.50;4360491;32;32618;-82
2023/01/20 05:56:34;;;;;;;0.95;0.77;;;;;;;5.50;61.23;99085.25;4359917;32;33729;-82
2023/01/20 05:59:01;;;;;;;0.35;0.35;;;;;;;5.04;62.58;99078.97;4347994;32;33670;-81
2023/01/20 06:01:29;;;;;;;1.08;1.08;;;;;;;4.82;63.43;99083.16;4347392;32;33837;-82
2023/01/20 06:03:57;;;;;;;1.35;0.98;;;;;;;4.79;63.71;99093.72;4335423;32;32917;-83
2023/01/20 06:06:25;;;;;;;1.00;1.00;;;;;;;4.90;63.77;99080.31;4360007;32;34850;-82
2023/01/20 06:08:52;;;;;;;0.70;0.70;;;;;;;4.96;63.47;99077.50;4360592;32;33621;-82
2023/01/20 06:11:20;;;;;;;1.00;1.00;;;;;;;5.23;62.83;99073.13;4359939;32;32954;-82
2023/01/20 06:13:48;;;;;;;0.00;0.00;;;;;;;5.27;62.44;99072.97;4348965;32;32676;-82
2023/01/20 06:16:17;;;;;;;1.20;1.17;;;;;;;5.14;62.68;99063.81;4372177;32;34659;-83
2023/01/20 06:18:45;;;;;;;0.52;0.52;;;;;;;5.31;62.50;99076.31;4350067;32;33932;-82
2023/01/20 06:21:12;;;;;;;0.55;0.55;;;;;;;5.13;63.12;99073.44;4349946;32;32404;-83
2023/01/20 06:23:40;;;;;;;0.30;0.30;;;;;;;5.03;63.66;99076.38;4359342;32;31584;-81
2023/01/20 06:26:11;;;;;;;0.30;0.30;;;;;;;5.14;63.42;99074.28;4359911;32;33950;-83
2023/01/20 06:28:38;;;;;;;0.25;0.25;;;;;;;4.99;64.11;99082.62;4358663;32;34098;-82
2023/01/20 06:31:14;;;;;;;1.83;1.37;;;;;;;5.23;63.25;99083.59;4335135;32;32873;-82
2023/01/20 06:33:42;;;;;;;0.30;0.30;;;;;;;5.39;62.43;99084.78;4381502;32;32652;-83
2023/01/20 06:36:12;;;;;;;0.28;0.28;;;;;;;5.16;63.07;99087.31;4347861;32;33990;-83
2023/01/20 06:38:40;;;;;;;1.60;1.50;;;;;;;5.23;62.58;99073.97;4347928;32;33143;-83
2023/01/20 06:41:09;;;;;;;0.17;0.17;;;;;;;5.29;62.48;99068.53;4358622;32;32401;-84
2023/01/20 06:43:41;;;;;;;0.77;0.75;;;;;;;5.07;62.85;99072.75;4347417;32;31964;-83
2023/01/20 06:46:11;;;;;;;0.15;0.15;;;;;;;5.18;62.67;99080.28;4358885;32;33104;-84
2023/01/20 06:48:39;;;;;;;0.55;0.55;;;;;;;5.22;62.67;99087.09;4358370;32;33544;-84
2023/01/20 06:51:11;;;;;;;0.73;0.73;;;;;;;5.09;63.33;99091.91;4348082;32;32299;-84
2023/01/20 06:53:39;;;;;;;1.55;1.30;;;;;;;5.20;63.10;99095.00;4358480;32;33902;-84
2023/01/20 06:56:09;;;;;;;3.03;1.45;;;;;;;5.17;63.55;99095.09;4358985;32;33200;-82
2023/01/20 06:58:38;;;;;;;1.87;0.85;;;;;;;5.14;63.17;99092.59;4359777;32;33418;-82
2023/01/20 07:01:14;;;;;;;1.45;1.35;;;;;;;5.04;63.76;99097.28;4358617;32;32534;-82
2023/01/20 07:03:44;;;;;;;1.12;1.12;;;;;;;5.21;63.04;99096.72;4345419;32;34378;-82
2023/01/20 07:06:14;;;;;;;0.47;0.47;;;;;;;5.31;63.14;99098.09;4379228;32;33455;-82
2023/01/20 07:08:43;;;;;;;2.85;2.22;;;;;;;5.31;62.68;99103.34;4382306;32;33846;-82
2023/01/20 07:11:11;;;;;;;0.62;0.62;;;;;;;5.37;62.85;99097.94;4371123;32;32809;-81
2023/01/20 07:13:39;;;;;;;1.83;1.73;;;;;;;5.25;62.75;99107.94;4371460;32;33473;-82
2023/01/20 07:16:07;;;;;;;0.82;0.82;;;;;;;5.23;63.04;99112.38;4359394;32;33971;-82
2023/01/20 07:18:39;;;;;;;2.22;1.17;;;;;;;5.35;62.76;99112.81;4359604;32;32523;-82
2023/01/20 07:21:10;;;;;;;0.17;0.17;;;;;;;5.56;62.17;99107.78;4360166;32;32480;-82
2023/01/20 07:23:37;;;;;;;2.20;2.10;;;;;;;5.47;62.36;99116.78;4379970;32;32868;-82
2023/01/20 07:26:07;;;;;;;0.65;0.55;;;;;;;5.50;62.53;99118.44;4371592;32;33996;-82
2023/01/20 07:28:35;;;;;;;1.33;1.33;;;;;;;5.65;62.08;99121.41;4380535;32;32788;-83
2023/01/20 07:31:03;;;;;;;0.08;0.08;;;;;;;5.48;62.52;99115.03;4359394;32;33029;-82
2023/01/20 07:33:32;;;;;;;0.60;0.60;;;;;;;5.55;62.50;99111.28;4359271;32;33569;-82
2023/01/20 07:36:00;;;;;;;2.53;1.37;;;;;;;5.47;62.64;99110.69;4371879;32;33965;-82
2023/01/20 07:38:28;;;;;;;0.30;0.30;;;;;;;5.76;62.00;99118.41;4372354;32;33122;-82
2023/01/20 07:41:10;;;;;;;0.57;0.57;;;;;;;5.55;62.75;99116.50;4372748;32;32293;-82
2023/01/20 07:43:38;;;;;;;0.85;0.85;;;;;;;5.67;62.53;99117.87;4361135;32;34743;-82
2023/01/20 07:46:05;;;;;;;3.97;3.28;;;;;;;5.76;61.84;99115.78;4371802;32;33494;-82
2023/01/20 07:48:33;;;;;;;0.25;0.17;;;;;;;5.63;62.85;99120.59;4372961;32;34480;-82
2023/01/20 07:51:04;;;;;;;0.37;0.37;;;;;;;5.62;62.73;99123.25;4359754;32;30562;-83
2023/01/20 07:53:34;;;;;;;2.60;1.17;;;;;;;5.76;62.49;99121.03;4383278;32;34137;-82
2023/01/20 07:56:06;;;;;;;1.73;1.37;;;;;;;5.93;61.74;99127.44;4369751;32;33809;-82
2023/01/20 07:58:34;;;;;;;1.45;1.33;;;;;;;5.80;62.00;99127.03;4384070;32;34204;-81
2023/01/20 08:01:10;;;;;;;1.40;1.27;;;;;;;5.69;62.70;99135.22;4372602;32;32725;-82
2023/01/20 08:03:38;;;;;;;0.85;0.85;;;;;;;5.54;62.90;99135.75;4375830;32;33469;-82
2023/01/20 08:06:08;;;;;;;1.23;1.12;;;;;;;5.59;62.76;99144.31;4354382;32;32693;-82
2023/01/20 08:08:36;;;;;;;6.12;3.12;;;;;;;5.68;62.71;99137.91;4378082;32;31949;-82
2023/01/20 08:11:05;;;;;;;1.12;1.10;;;;;;;5.64;62.67;99145.00;4385311;32;33724;-82
2023/01/20 08:13:33;;;;;;;0.20;0.20;;;;;;;5.63;62.89;99148.53;4368744;32;33814;-83
2023/01/20 08:16:03;;;;;;;0.37;0.37;;;;;;;5.64;63.04;99150.25;4379548;32;33706;-82
2023/01/20 08:18:31;;;;;;;0.95;0.95;;;;;;;5.77;62.89;99153.31;4364325;32;34207;-82
2023/01/20 08:20:59;;;;;;;2.53;2.35;;;;;;;5.77;62.62;99154.16;4391840;32;33511;-82
2023/01/20 08:23:26;;;;;;;0.35;0.35;;;;;;;5.78;62.84;99155.87;4375828;32;33740;-82
2023/01/20 08:25:58;;;;;;;0.00;0.00;;;;;;;5.85;62.63;99151.28;4377790;32;34247;-82
2023/01/20 08:28:27;;;;;;;0.47;0.40;;;;;;;6.04;61.98;99154.16;4375221;32;32579;-82
2023/01/20 08:31:08;;;;;;;3.15;2.95;;;;;;;5.70;62.75;99151.78;4365309;32;32510;-82
2023/01/20 08:33:36;;;;;;;1.02;1.02;;;;;;;5.95;62.41;99144.84;4399842;32;32772;-82
2023/01/20 08:36:07;;;;;;;0.40;0.40;;;;;;;5.89;62.72;99151.12;4375457;32;33115;-83
2023/01/20 08:38:35;;;;;;;2.78;1.05;;;;;;;5.97;62.78;99157.88;4378526;32;33766;-82
2023/01/20 08:41:08;;;;;;;1.05;1.05;;;;;;;5.95;62.69;99151.84;4376432;32;33108;-82
2023/01/20 08:43:36;;;;;;;4.15;2.87;;;;;;;6.07;62.59;99157.50;4376198;32;34021;-82
2023/01/20 08:46:07;;;;;;;1.00;0.95;;;;;;;6.23;61.96;99156.97;4367676;32;33741;-82
2023/01/20 08:48:36;;;;;;;0.68;0.68;;;;;;;5.95;61.93;99157.94;4366540;32;33278;-82
2023/01/20 08:51:06;;;;;;;0.90;0.90;;;;;;;5.96;61.98;99153.56;4378101;32;33519;-82
2023/01/20 08:53:35;;;;;;;5.57;2.75;;;;;;;6.09;61.98;99154.84;4375766;32;34267;-82
2023/01/20 08:56:03;;;;;;;2.53;1.87;;;;;;;6.41;60.79;99151.91;4365291;32;33810;-82
2023/01/20 08:58:31;;;;;;;4.18;2.40;;;;;;;6.12;61.52;99159.94;4367998;32;33531;-82
2023/01/20 09:00:59;;;;;;;0.32;0.30;;;;;;;6.07;61.59;99161.88;4377911;32;33013;-81
2023/01/20 09:03:30;;;;;;;2.72;1.10;;;;;;;6.02;62.11;99158.56;4370760;32;33555;-83
2023/01/20 09:06:04;;;;;;;2.15;1.95;;;;;;;5.86;62.67;99164.31;4371260;32;33938;-82
2023/01/20 09:08:31;;;;;;;0.65;0.65;;;;;;;5.57;63.44;99167.09;4372574;32;32992;-82
2023/01/20 09:11:06;;;;;;;0.77;0.62;;;;;;;5.22;64.32;99170.84;4348322;32;33092;-82
2023/01/20 09:13:34;;;;;;;2.03;1.92;;;;;;;5.39;64.14;99169.41;4373035;32;32445;-82
2023/01/20 09:16:03;;;;;;;1.73;1.65;;;;;;;5.62;63.49;99165.16;4371617;32;34409;-82
2023/01/20 09:18:32;;;;;;;1.77;1.00;;;;;;;5.77;63.27;99161.16;4359710;32;33534;-82
2023/01/20 09:21:01;;;;;;;1.50;1.40;;;;;;;5.88;62.96;99161.66;4349999;32;32891;-82
2023/01/20 09:23:28;;;;;;;1.60;1.08;;;;;;;5.89;62.95;99156.38;4361878;32;33472;-82
2023/01/20 09:25:58;;;;;;;1.52;1.45;;;;;;;5.86;63.09;99143.38;4372294;32;32537;-82
2023/01/20 09:28:26;;;;;;;1.70;1.25;;;;;;;5.89;62.58;99148.50;4371902;32;33813;-82
2023/01/20 09:31:03;;;;;;;5.68;1.35;;;;;;;6.25;61.59;99139.41;4365041;32;33466;-81
2023/01/20 09:33:32;;;;;;;0.60;0.60;;;;;;;6.30;61.15;99127.84;4368573;32;33022;-82
2023/01/20 09:35:59;;;;;;;0.37;0.37;;;;;;;6.21;61.44;99112.44;4362418;32;34809;-82
2023/01/20 09:44:06;;;;;;;0.37;0.37;;;;;;;6.08;62.37;99121.69;4381159;32;33276;-82
2023/01/20 09:46:43;;;;;;;1.52;1.42;;;;;;;6.15;62.40;99115.28;4372312;32;34448;-82
2023/01/20 09:55:25;;;;;;;0.88;0.88;;;;;;;6.06;62.84;99120.88;4371728;32;33498;-82
2023/01/20 09:58:04;;;;;;;0.55;0.55;;;;;;;6.17;62.71;99110.84;4372230;32;33944;-82
2023/01/20 10:00:32;;;;;;;2.17;2.05;;;;;;;6.13;62.82;99104.88;4369696;32;33601;-82
2023/01/20 10:03:28;;;;;;;0.17;0.17;;;;;;;6.18;62.81;99096.84;4358179;32;33006;-82
2023/01/20 10:05:57;;;;;;;2.08;1.98;;;;;;;6.38;62.53;99082.97;4359162;32;32352;-83
2023/01/20 10:08:32;;;;;;;2.00;1.83;;;;;;;6.36;62.67;99079.53;4372668;32;33722;-82
2023/01/20 10:11:07;;;;;;;1.10;1.00;;;;;;;6.44;62.30;99066.16;4358684;32;32068;-82
2023/01/20 10:13:46;;;;;;;0.37;0.37;;;;;;;6.16;63.49;99067.19;4360162;32;33129;-82
2023/01/20 10:16:31;;;;;;;3.50;1.02;;;;;;;6.52;62.59;99053.59;4371440;32;35950;-82
2023/01/20 10:19:02;;;;;;;5.40;1.35;;;;;;;6.38;62.99;99044.50;4359519;32;33787;-82
2023/01/20 10:21:50;;;;;;;1.02;1.02;;;;;;;6.32;62.68;99046.50;4359306;32;33562;-82
2023/01/20 10:24:31;;;;;;;1.00;0.98;;;;;;;6.64;61.55;99040.00;4367104;32;32432;-83
2023/01/20 10:27:03;;;;;;;1.05;0.43;;;;;;;6.51;61.88;99036.16;4360717;32;33432;-83
2023/01/20 10:29:35;;;;;;;0.82;0.80;;;;;;;6.61;61.30;99045.38;4360317;32;33794;-83
2023/01/20 10:32:10;;;;;;;1.02;1.00;;;;;;;6.63;61.60;99054.88;4369546;32;32503;-82
2023/01/20 10:34:45;;;;;;;2.65;0.57;;;;;;;6.70;61.32;99052.88;4359953;32;32005;-82
2023/01/20 10:37:14;;;;;;;3.03;0.73;;;;;;;6.28;61.67;99037.91;4360106;32;33069;-83
2023/01/20 10:39:53;;;;;;;2.42;1.35;;;;;;;6.29;61.71;99039.63;4372623;32;33940;-82
2023/01/20 10:42:23;;;;;;;0.43;0.43;;;;;;;6.51;60.95;99047.50;4360746;32;33796;-82
2023/01/20 10:44:51;;;;;;;13.10;2.28;;;;;;;6.43;61.07;99043.47;4357586;32;33545;-82
2023/01/20 10:47:28;;;;;;;0.22;0.22;;;;;;;6.55;60.86;99054.34;4372891;32;33760;-83
2023/01/20 10:50:11;;;;;;;0.75;0.75;;;;;;;6.60;60.70;99064.66;4370579;32;34476;-82
2023/01/20 10:53:07;;;;;;;0.95;0.95;;;;;;;6.66;59.96;99061.78;4371748;32;33774;-83
2023/01/20 10:56:05;;;;;;;2.00;1.75;;;;;;;5.90;61.76;99066.38;4373105;32;31490;-82
2023/01/20 10:58:36;;;;;;;0.28;0.28;;;;;;;6.13;61.49;99062.94;4371172;32;34422;-83
2023/01/20 11:01:09;;;;;;;1.77;1.67;;;;;;;6.29;60.72;99071.06;4359378;32;33983;-82
2023/01/20 11:03:41;;;;;;;1.23;1.23;;;;;;;6.08;60.92;99070.13;4374098;32;31545;-83
2023/01/20 11:06:15;;;;;;;5.75;1.35;;;;;;;6.34;60.58;99069.13;4382494;32;32590;-82
2023/01/20 11:08:43;;;;;;;0.52;0.43;;;;;;;6.60;59.93;99067.28;4373917;32;33759;-83
2023/01/20 11:11:15;;;;;;;4.07;2.25;;;;;;;6.48;60.61;99068.59;4359301;32;32621;-82
2023/01/20 11:13:42;;;;;;;0.95;0.95;;;;;;;6.34;61.65;99063.87;4382891;32;34060;-82
2023/01/20 11:16:18;;;;;;;1.65;1.30;;;;;;;6.25;61.74;99060.75;4360218;32;32573;-82
2023/01/20 11:18:57;;;;;;;2.47;2.33;;;;;;;6.19;62.13;99061.84;4380776;32;32325;-82
2023/01/20 11:21:28;;;;;;;5.78;5.20;;;;;;;6.07;62.83;99057.06;4384498;32;31861;-82
2023/01/20 11:23:57;;;;;;;2.80;0.82;;;;;;;5.95;62.77;99047.91;4369764;32;34731;-82
2023/01/20 11:26:36;;;;;;;1.17;1.17;;;;;;;6.61;60.74;99040.13;4372568;32;32925;-83
2023/01/20 11:29:09;;;;;;;1.35;1.35;;;;;;;6.38;62.00;99026.16;4372079;32;34690;-83
2023/01/20 11:31:40;;;;;;;2.53;2.33;;;;;;;6.39;61.98;99024.38;4380096;32;34470;-82
2023/01/20 11:34:19;;;;;;;1.87;1.42;;;;;;;6.64;60.79;99017.22;4386331;32;34366;-82
2023/01/20 11:36:48;;;;;;;0.93;0.80;;;;;;;6.70;60.40;99010.06;4372021;32;34191;-82
2023/01/20 11:39:25;;;;;;;2.72;1.30;;;;;;;6.35;61.95;99005.28;4360916;32;33483;-83
2023/01/20 11:42:16;;;;;;;0.20;0.20;;;;;;;6.48;61.03;98996.94;4374703;32;33157;-82
2023/01/20 11:44:45;;;;;;;0.17;0.17;;;;;;;6.47;60.69;98997.88;4389362;32;33239;-82
2023/01/20 11:47:26;;;;;;;1.58;1.50;;;;;;;6.13;62.24;99007.03;4370454;32;33904;-83
2023/01/20 11:50:03;;;;;;;0.85;0.82;;;;;;;6.49;61.35;99003.88;4375342;32;32516;-82
2023/01/20 11:52:34;;;;;;;0.60;0.60;;;;;;;6.57;61.10;98988.72;4372891;32;33548;-83
2023/01/20 11:55:14;;;;;;;0.70;0.70;;;;;;;6.49;61.08;99002.13;4383869;32;32783;-83
2023/01/20 11:57:44;;;;;;;6.07;2.05;;;;;;;6.67;60.78;98990.88;4359205;32;33459;-83
2023/01/20 12:00:18;;;;;;;0.95;0.95;;;;;;;6.73;60.38;98992.41;4369545;32;33594;-82
2023/01/20 12:03:01;;;;;;;0.85;0.85;;;;;;;6.71;61.28;98996.88;4370897;32;33144;-82
2023/01/20 12:05:50;;;;;;;0.88;0.88;;;;;;;6.62;61.78;98992.00;4371828;32;33020;-82
2023/01/20 12:08:25;;;;;;;0.40;0.40;;;;;;;6.72;60.87;98988.06;4381607;32;33028;-82
2023/01/20 12:10:54;;;;;;;0.68;0.68;;;;;;;6.88;59.97;98991.78;4384295;32;31789;-83
2023/01/20 12:13:25;;;;;;;0.10;0.10;;;;;;;6.97;59.44;98993.16;4383167;32;34081;-82
2023/01/20 12:15:55;;;;;;;1.45;1.35;;;;;;;6.76;59.83;98992.28;4375990;32;34049;-82